sensor_id;sensor_type;location;lat;lon;timestamp;pressure;altitude;pressure_sealevel;temperature;humidity
24762;BME280;12865;51.934;10.330;2023-02-05T00:02:20;101295.34;;;-0.94;100.00
24762;BME280;12865;51.934;10.330;2023-02-05T00:05:06;101297.09;;;-0.96;100.00
24762;BME280;12865;51.934;10.330;2023-02-05T00:07:51;101297.09;;;-0.96;100.00
24762;BME280;12865;51.934;10.330;2023-02-05T00:10:37;101298.91;;;-1.01;100.00
24762;BME280;12865;51.934;10.330;2023-02-05T00:13:23;101296.31;;;-1.01;100.00
24762;BME280;12865;51.934;10.330;2023-02-05T00:16:12;101282.28;;;-0.97;100.00
24762;BME280;12865;51.934;10.330;2023-02-05T00:18:58;101292.72;;;-0.94;100.00
24762;BME280;12865;51.934;10.330;2023-02-05T00:21:44;101283.88;;;-0.84;100.00
24762;BME280;12865;51.934;10.330;2023-02-05T00:24:30;101268.28;;;-0.91;100.00
24762;BME280;12865;51.934;10.330;2023-02-05T00:27:15;101276.06;;;-0.88;100.00
24762;BME280;12865;51.934;10.330;2023-02-05T00:30:01;101274.41;;;-0.92;100.00
24762;BME280;12865;51.934;10.330;2023-02-05T00:32:47;101275.31;;;-0.98;100.00
24762;BME280;12865;51.934;10.330;2023-02-05T00:35:32;101265.69;;;-0.97;100.00
24762;BME280;12865;51.934;10.330;2023-02-05T00:38:18;101257.03;;;-1.01;100.00
24762;BME280;12865;51.934;10.330;2023-02-05T00:41:04;101259.66;;;-1.04;100.00
24762;BME280;12865;51.934;10.330;2023-02-05T00:43:50;101250.13;;;-1.06;100.00
24762;BME280;12865;51.934;10.330;2023-02-05T00:46:35;101245.53;;;-0.88;100.00
24762;BME280;12865;51.934;10.330;2023-02-05T00:49:21;101252.66;;;-0.99;100.00
24762;BME280;12865;51.934;10.330;2023-02-05T00:52:07;101256.09;;;-0.97;100.00
24762;BME280;12865;51.934;10.330;2023-02-05T00:54:52;101250.91;;;-0.98;100.00
24762;BME280;12865;51.934;10.330;2023-02-05T00:57:38;101254.34;;;-0.98;100.00
24762;BME280;12865;51.934;10.330;2023-02-05T01:00:24;101244.75;;;-0.96;100.00
24762;BME280;12865;51.934;10.330;2023-02-05T01:03:11;101236.03;;;-0.98;100.00
24762;BME280;12865;51.934;10.330;2023-02-05T01:05:57;101237.75;;;-0.94;100.00
24762;BME280;12865;51.934;10.330;2023-02-05T01:08:43;101222.13;;;-0.98;100.00
24762;BME280;12865;51.934;10.330;2023-02-05T01:11:29;101218.56;;;-0.94;100.00
24762;BME280;12865;51.934;10.330;2023-02-05T01:14:15;101210.69;;;-0.91;100.00
24762;BME280;12865;51.934;10.330;2023-02-05T01:17:00;101209.84;;;-0.95;100.00
24762;BME280;12865;51.934;10.330;2023-02-05T01:19:46;101198.38;;;-0.85;100.00
24762;BME280;12865;51.934;10.330;2023-02-05T01:22:32;101182.72;;;-0.89;100.00
24762;BME280;12865;51.934;10.330;2023-02-05T01:25:18;101184.50;;;-0.93;100.00
24762;BME280;12865;51.934;10.330;2023-02-05T01:28:04;101185.31;;;-0.89;100.00
24762;BME280;12865;51.934;10.330;2023-02-05T01:30:51;101184.53;;;-0.96;100.00
24762;BME280;12865;51.934;10.330;2023-02-05T01:33:36;101181.03;;;-0.93;100.00
24762;BME280;12865;51.934;10.330;2023-02-05T01:36:22;101173.28;;;-1.04;100.00
24762;BME280;12865;51.934;10.330;2023-02-05T01:39:08;101168.09;;;-1.05;100.00
24762;BME280;12865;51.934;10.330;2023-02-05T01:41:53;101167.25;;;-1.09;100.00
24762;BME280;12865;51.934;10.330;2023-02-05T01:44:39;101158.59;;;-1.12;100.00
24762;BME280;12865;51.934;10.330;2023-02-05T01:47:25;101151.63;;;-1.15;100.00
24762;BME280;12865;51.934;10.330;2023-02-05T01:50:11;101151.63;;;-1.15;100.00
24762;BME280;12865;51.934;10.330;2023-02-05T01:52:59;101149.91;;;-1.16;100.00
24762;BME280;12865;51.934;10.330;2023-02-05T01:55:58;101147.19;;;-1.07;100.00
24762;BME280;12865;51.934;10.330;2023-02-05T01:58:50;101148.09;;;-1.11;100.00
24762;BME280;12865;51.934;10.330;2023-02-05T02:01:38;101135.88;;;-1.12;100.00
24762;BME280;12865;51.934;10.330;2023-02-05T02:04:47;101139.31;;;-1.07;100.00
24762;BME280;12865;51.934;10.330;2023-02-05T02:07:34;101134.06;;;-1.05;100.00
24762;BME280;12865;51.934;10.330;2023-02-05T02:10:20;101136.69;;;-1.05;100.00
24762;BME280;12865;51.934;10.330;2023-02-05T02:13:06;101137.50;;;-1.02;100.00
24762;BME280;12865;51.934;10.330;2023-02-05T02:15:52;101135.75;;;-1.01;100.00
24762;BME280;12865;51.934;10.330;2023-02-05T02:18:39;101127.94;;;-1.04;100.00
24762;BME280;12865;51.934;10.330;2023-02-05T02:27:39;101103.84;;;-1.28;100.00
24762;BME280;12865;51.934;10.330;2023-02-05T02:30:31;101098.69;;;-1.37;100.00
24762;BME280;12865;51.934;10.330;2023-02-05T02:33:30;101100.63;;;-1.52;100.00
24762;BME280;12865;51.934;10.330;2023-02-05T02:36:18;101099.81;;;-1.58;100.00
24762;BME280;12865;51.934;10.330;2023-02-05T02:39:14;101085.88;;;-1.56;100.00
24762;BME280;12865;51.934;10.330;2023-02-05T02:42:20;101088.50;;;-1.58;100.00
24762;BME280;12865;51.934;10.330;2023-02-05T02:45:08;101090.22;;;-1.55;100.00
24762;BME280;12865;51.934;10.330;2023-02-05T02:47:57;101091.19;;;-1.64;100.00
24762;BME280;12865;51.934;10.330;2023-02-05T02:50:47;101080.66;;;-1.56;100.00
24762;BME280;12865;51.934;10.330;2023-02-05T02:53:39;101082.38;;;-1.57;100.00
24762;BME280;12865;51.934;10.330;2023-02-05T02:56:27;101078.06;;;-1.61;100.00
24762;BME280;12865;51.934;10.330;2023-02-05T02:59:17;101078.06;;;-1.61;100.00
24762;BME280;12865;51.934;10.330;2023-02-05T03:02:04;101066.81;;;-1.68;100.00
24762;BME280;12865;51.934;10.330;2023-02-05T03:04:56;101059.13;;;-1.81;100.00
24762;BME280;12865;51.934;10.330;2023-02-05T03:07:52;101056.47;;;-1.77;100.00
24762;BME280;12865;51.934;10.330;2023-02-05T03:10:46;101058.22;;;-1.76;100.00
24762;BME280;12865;51.934;10.330;2023-02-05T03:13:33;101042.50;;;-1.74;100.00
24762;BME280;12865;51.934;10.330;2023-02-05T03:16:20;101043.44;;;-1.80;100.00
24762;BME280;12865;51.934;10.330;2023-02-05T03:19:06;101046.94;;;-1.81;100.00
24762;BME280;12865;51.934;10.330;2023-02-05T03:21:59;101060.03;;;-1.82;100.00
24762;BME280;12865;51.934;10.330;2023-02-05T03:24:45;101053.94;;;-1.83;100.00
24762;BME280;12865;51.934;10.330;2023-02-05T03:27:33;101042.44;;;-1.70;100.00
24762;BME280;12865;51.934;10.330;2023-02-05T03:30:19;101045.03;;;-1.68;100.00
24762;BME280;12865;51.934;10.330;2023-02-05T03:33:24;101052.75;;;-1.58;100.00
24762;BME280;12865;51.934;10.330;2023-02-05T03:36:25;101065.06;;;-1.67;100.00
24762;BME280;12865;51.934;10.330;2023-02-05T03:39:42;101061.53;;;-1.62;100.00
24762;BME280;12865;51.934;10.330;2023-02-05T03:45:44;101066.94;;;-1.77;100.00
24762;BME280;12865;51.934;10.330;2023-02-05T03:49:33;101072.09;;;-1.71;100.00
24762;BME280;12865;51.934;10.330;2023-02-05T03:52:28;101057.31;;;-1.75;100.00
24762;BME280;12865;51.934;10.330;2023-02-05T03:55:38;101057.44;;;-1.82;100.00
24762;BME280;12865;51.934;10.330;2023-02-05T03:58:40;101056.56;;;-1.86;100.00
24762;BME280;12865;51.934;10.330;2023-02-05T04:01:26;101051.34;;;-1.86;100.00
24762;BME280;12865;51.934;10.330;2023-02-05T04:04:12;101056.63;;;-1.90;100.00
24762;BME280;12865;51.934;10.330;2023-02-05T04:06:58;101050.50;;;-1.88;100.00
24762;BME280;12865;51.934;10.330;2023-02-05T04:09:44;101045.97;;;-1.74;100.00
24762;BME280;12865;51.934;10.330;2023-02-05T04:12:29;101058.25;;;-1.82;100.00
24762;BME280;12865;51.934;10.330;2023-02-05T04:15:15;101066.06;;;-1.77;100.00
24762;BME280;12865;51.934;10.330;2023-02-05T04:18:01;101069.50;;;-1.74;100.00
24762;BME280;12865;51.934;10.330;2023-02-05T04:20:46;101079.13;;;-1.76;100.00
24762;BME280;12865;51.934;10.330;2023-02-05T04:23:32;101081.69;;;-1.74;100.00
24762;BME280;12865;51.934;10.330;2023-02-05T04:26:18;101069.47;;;-1.71;100.00
24762;BME280;12865;51.934;10.330;2023-02-05T04:29:03;101054.50;;;-1.56;100.00
24762;BME280;12865;51.934;10.330;2023-02-05T04:31:49;101042.13;;;-1.45;100.00
24762;BME280;12865;51.934;10.330;2023-02-05T04:34:35;101029.06;;;-1.45;100.00
24762;BME280;12865;51.934;10.330;2023-02-05T04:37:20;101038.63;;;-1.44;100.00
24762;BME280;12865;51.934;10.330;2023-02-05T04:40:07;101040.47;;;-1.51;100.00
24762;BME280;12865;51.934;10.330;2023-02-05T04:42:53;101039.53;;;-1.47;100.00
24762;BME280;12865;51.934;10.330;2023-02-05T04:45:38;101035.16;;;-1.46;100.00
24762;BME280;12865;51.934;10.330;2023-02-05T04:48:24;101037.84;;;-1.49;100.00
24762;BME280;12865;51.934;10.330;2023-02-05T04:51:11;101032.63;;;-1.51;100.00
24762;BME280;12865;51.934;10.330;2023-02-05T04:53:57;101047.41;;;-1.48;100.00
24762;BME280;12865;51.934;10.330;2023-02-05T04:56:43;101040.44;;;-1.49;100.00
24762;BME280;12865;51.934;10.330;2023-02-05T04:59:29;101039.59;;;-1.51;100.00
24762;BME280;12865;51.934;10.330;2023-02-05T05:02:15;101036.06;;;-1.47;100.00
24762;BME280;12865;51.934;10.330;2023-02-05T05:05:01;101026.28;;;-1.33;100.00
24762;BME280;12865;51.934;10.330;2023-02-05T05:07:47;101030.59;;;-1.29;100.00
24762;BME280;12865;51.934;10.330;2023-02-05T05:10:33;101021.53;;;-1.07;100.00
24762;BME280;12865;51.934;10.330;2023-02-05T05:13:18;101017.22;;;-1.11;100.00
24762;BME280;12865;51.934;10.330;2023-02-05T05:16:05;101013.50;;;-0.95;100.00
24762;BME280;12865;51.934;10.330;2023-02-05T05:18:51;101012.50;;;-0.86;100.00
24762;BME280;12865;51.934;10.330;2023-02-05T05:21:37;101004.63;;;-0.85;100.00
24762;BME280;12865;51.934;10.330;2023-02-05T05:24:22;101013.38;;;-0.86;100.00
24762;BME280;12865;51.934;10.330;2023-02-05T05:27:08;101009.91;;;-0.88;100.00
24762;BME280;12865;51.934;10.330;2023-02-05T05:29:53;101012.53;;;-0.89;100.00
24762;BME280;12865;51.934;10.330;2023-02-05T05:32:39;101004.66;;;-0.86;100.00
24762;BME280;12865;51.934;10.330;2023-02-05T05:35:25;101003.69;;;-0.82;100.00
24762;BME280;12865;51.934;10.330;2023-02-05T05:38:10;100984.44;;;-0.78;100.00
24762;BME280;12865;51.934;10.330;2023-02-05T05:40:57;100990.50;;;-0.76;100.00
24762;BME280;12865;51.934;10.330;2023-02-05T05:44:01;100992.97;;;-0.67;100.00
24762;BME280;12865;51.934;10.330;2023-02-05T05:46:47;100984.13;;;-0.61;100.00
24762;BME280;12865;51.934;10.330;2023-02-05T05:49:32;100975.28;;;-0.54;100.00
24762;BME280;12865;51.934;10.330;2023-02-05T05:52:18;100978.50;;;-0.38;100.00
24762;BME280;12865;51.934;10.330;2023-02-05T05:55:04;100987.00;;;-0.27;100.00
24762;BME280;12865;51.934;10.330;2023-02-05T05:57:50;100973.50;;;-0.06;100.00
24762;BME280;12865;51.934;10.330;2023-02-05T06:00:37;100980.19;;;0.09;100.00
24762;BME280;12865;51.934;10.330;2023-02-05T06:03:23;100974.00;;;0.13;100.00
24762;BME280;12865;51.934;10.330;2023-02-05T06:06:09;100965.16;;;0.18;100.00
24762;BME280;12865;51.934;10.330;2023-02-05T06:08:56;100965.88;;;0.25;100.00
24762;BME280;12865;51.934;10.330;2023-02-05T06:11:41;100967.47;;;0.32;100.00
24762;BME280;12865;51.934;10.330;2023-02-05T06:14:27;100965.63;;;0.37;100.00
24762;BME280;12865;51.934;10.330;2023-02-05T06:17:13;100969.09;;;0.37;100.00
24762;BME280;12865;51.934;10.330;2023-02-05T06:19:58;100959.34;;;0.44;100.00
24762;BME280;12865;51.934;10.330;2023-02-05T06:22:45;100953.06;;;0.51;100.00
24762;BME280;12865;51.934;10.330;2023-02-05T06:25:30;100949.31;;;0.63;100.00
24762;BME280;12865;51.934;10.330;2023-02-05T06:28:16;100934.38;;;0.65;100.00
24762;BME280;12865;51.934;10.330;2023-02-05T06:31:02;100926.44;;;0.68;100.00
24762;BME280;12865;51.934;10.330;2023-02-05T06:33:48;100924.44;;;0.77;100.00
24762;BME280;12865;51.934;10.330;2023-02-05T06:36:33;100923.53;;;0.78;100.00
24762;BME280;12865;51.934;10.330;2023-02-05T06:39:19;100929.75;;;0.76;100.00
24762;BME280;12865;51.934;10.330;2023-02-05T06:42:05;100932.28;;;0.79;100.00
24762;BME280;12865;51.934;10.330;2023-02-05T06:44:51;100929.34;;;0.91;100.00
24762;BME280;12865;51.934;10.330;2023-02-05T06:47:37;100928.81;;;1.12;100.00
24762;BME280;12865;51.934;10.330;2023-02-05T06:50:23;100922.75;;;1.12;100.00
24762;BME280;12865;51.934;10.330;2023-02-05T06:53:09;100928.03;;;1.10;100.00
24762;BME280;12865;51.934;10.330;2023-02-05T06:55:57;100930.38;;;1.21;100.00
24762;BME280;12865;51.934;10.330;2023-02-05T06:58:43;100928.56;;;1.23;100.00
24762;BME280;12865;51.934;10.330;2023-02-05T07:01:29;100934.72;;;1.22;100.00
24762;BME280;12865;51.934;10.330;2023-02-05T07:04:14;100939.09;;;1.23;100.00
24762;BME280;12865;51.934;10.330;2023-02-05T07:07:00;100934.56;;;1.28;100.00
24762;BME280;12865;51.934;10.330;2023-02-05T07:09:46;100937.59;;;1.47;100.00
24762;BME280;12865;51.934;10.330;2023-02-05T07:12:32;100939.47;;;1.42;100.00
24762;BME280;12865;51.934;10.330;2023-02-05T07:15:17;100929.97;;;1.36;100.00
24762;BME280;12865;51.934;10.330;2023-02-05T07:18:03;100923.81;;;1.37;100.00
24762;BME280;12865;51.934;10.330;2023-02-05T07:20:49;100915.84;;;1.40;100.00
24762;BME280;12865;51.934;10.330;2023-02-05T07:23:35;100906.13;;;1.44;100.00
24762;BME280;12865;51.934;10.330;2023-02-05T07:26:21;100898.19;;;1.47;100.00
24762;BME280;12865;51.934;10.330;2023-02-05T07:29:08;100893.72;;;1.49;100.00
24762;BME280;12865;51.934;10.330;2023-02-05T07:31:53;100889.44;;;1.46;100.00
24762;BME280;12865;51.934;10.330;2023-02-05T07:34:39;100882.63;;;1.70;100.00
24762;BME280;12865;51.934;10.330;2023-02-05T07:37:25;100882.50;;;1.75;100.00
24762;BME280;12865;51.934;10.330;2023-02-05T07:40:11;100890.06;;;1.85;100.00
24762;BME280;12865;51.934;10.330;2023-02-05T07:42:56;100880.66;;;1.77;100.00
24762;BME280;12865;51.934;10.330;2023-02-05T07:45:42;100884.84;;;1.84;100.00
24762;BME280;12865;51.934;10.330;2023-02-05T07:48:28;100880.38;;;1.87;100.00
24762;BME280;12865;51.934;10.330;2023-02-05T07:51:19;100883.81;;;1.89;100.00
24762;BME280;12865;51.934;10.330;2023-02-05T07:54:09;100898.28;;;2.04;100.00
24762;BME280;12865;51.934;10.330;2023-02-05T07:56:54;100884.44;;;1.97;100.00
24762;BME280;12865;51.934;10.330;2023-02-05T07:59:40;100884.22;;;2.05;100.00
24762;BME280;12865;51.934;10.330;2023-02-05T08:02:26;100880.63;;;2.09;100.00
24762;BME280;12865;51.934;10.330;2023-02-05T08:05:12;100882.38;;;2.09;100.00
24762;BME280;12865;51.934;10.330;2023-02-05T08:07:57;100881.31;;;2.14;100.00
24762;BME280;12865;51.934;10.330;2023-02-05T08:10:43;100885.34;;;2.26;100.00
24762;BME280;12865;51.934;10.330;2023-02-05T08:13:29;100894.13;;;2.25;100.00
24762;BME280;12865;51.934;10.330;2023-02-05T08:16:15;100894.78;;;2.33;100.00
24762;BME280;12865;51.934;10.330;2023-02-05T08:19:00;100890.25;;;2.38;100.00
24762;BME280;12865;51.934;10.330;2023-02-05T08:21:46;100882.47;;;2.33;100.00
24762;BME280;12865;51.934;10.330;2023-02-05T08:24:32;100881.50;;;2.38;100.00
24762;BME280;12865;51.934;10.330;2023-02-05T08:27:17;100879.66;;;2.40;100.00
24762;BME280;12865;51.934;10.330;2023-02-05T08:30:04;100882.84;;;2.51;100.00
24762;BME280;12865;51.934;10.330;2023-02-05T08:32:50;100871.47;;;2.49;100.00
24762;BME280;12865;51.934;10.330;2023-02-05T08:35:36;100871.41;;;2.52;100.00
24762;BME280;12865;51.934;10.330;2023-02-05T08:38:21;100873.59;;;2.65;100.00
24762;BME280;12865;51.934;10.330;2023-02-05T08:41:08;100875.47;;;2.60;100.00
24762;BME280;12865;51.934;10.330;2023-02-05T08:43:57;100881.53;;;2.64;100.00
24762;BME280;12865;51.934;10.330;2023-02-05T08:46:43;100884.03;;;2.67;100.00
24762;BME280;12865;51.934;10.330;2023-02-05T08:49:28;100885.78;;;2.68;100.00
24762;BME280;12865;51.934;10.330;2023-02-05T08:52:14;100872.31;;;2.77;100.00
24762;BME280;12865;51.934;10.330;2023-02-05T08:55:00;100874.94;;;2.77;100.00
24762;BME280;12865;51.934;10.330;2023-02-05T08:57:46;100876.63;;;2.80;100.00
24762;BME280;12865;51.934;10.330;2023-02-05T09:00:31;100887.09;;;2.81;100.00
24762;BME280;12865;51.934;10.330;2023-02-05T09:03:18;100883.41;;;2.87;100.00
24762;BME280;12865;51.934;10.330;2023-02-05T09:06:06;100894.75;;;2.89;100.00
24762;BME280;12865;51.934;10.330;2023-02-05T09:08:52;100895.72;;;2.86;100.00
24762;BME280;12865;51.934;10.330;2023-02-05T09:11:38;100892.94;;;2.91;100.00
24762;BME280;12865;51.934;10.330;2023-02-05T09:14:24;100904.53;;;2.85;100.00
24762;BME280;12865;51.934;10.330;2023-02-05T09:17:09;100895.41;;;2.95;100.00
24762;BME280;12865;51.934;10.330;2023-02-05T09:19:55;100890.13;;;2.95;100.00
24762;BME280;12865;51.934;10.330;2023-02-05T09:22:41;100878.03;;;2.90;100.00
24762;BME280;12865;51.934;10.330;2023-02-05T09:25:27;100886.72;;;2.93;100.00
24762;BME280;12865;51.934;10.330;2023-02-05T09:28:14;100878.69;;;2.96;100.00
24762;BME280;12865;51.934;10.330;2023-02-05T09:31:05;100875.81;;;3.04;100.00
24762;BME280;12865;51.934;10.330;2023-02-05T09:33:51;100862.66;;;3.02;100.00
24762;BME280;12865;51.934;10.330;2023-02-05T09:36:37;100872.09;;;3.09;100.00
24762;BME280;12865;51.934;10.330;2023-02-05T09:39:23;100868.47;;;3.13;100.00
24762;BME280;12865;51.934;10.330;2023-02-05T09:42:21;100876.84;;;3.25;100.00
24762;BME280;12865;51.934;10.330;2023-02-05T09:45:21;100876.84;;;3.25;100.00
24762;BME280;12865;51.934;10.330;2023-02-05T09:51:27;100875.63;;;3.35;100.00
24762;BME280;12865;51.934;10.330;2023-02-05T09:57:08;100881.97;;;3.29;100.00
24762;BME280;12865;51.934;10.330;2023-02-05T09:59:56;100894.81;;;3.38;100.00
24762;BME280;12865;51.934;10.330;2023-02-05T10:24:27;100882.31;;;3.68;100.00
24762;BME280;12865;51.934;10.330;2023-02-05T10:27:47;100888.91;;;3.57;100.00
24762;BME280;12865;51.934;10.330;2023-02-05T10:30:36;100890.69;;;3.56;100.00
24762;BME280;12865;51.934;10.330;2023-02-05T10:33:45;100886.53;;;3.49;100.00
24762;BME280;12865;51.934;10.330;2023-02-05T10:36:31;100889.97;;;3.51;100.00
24762;BME280;12865;51.934;10.330;2023-02-05T10:39:21;100880.13;;;3.56;100.00
24762;BME280;12865;51.934;10.330;2023-02-05T10:42:26;100871.00;;;3.65;100.00
24762;BME280;12865;51.934;10.330;2023-02-05T10:45:22;100861.03;;;3.73;100.00
24762;BME280;12865;51.934;10.330;2023-02-05T10:51:31;100881.00;;;3.80;100.00
24762;BME280;12865;51.934;10.330;2023-02-05T10:54:27;100882.78;;;3.79;100.00
24762;BME280;12865;51.934;10.330;2023-02-05T10:57:16;100878.44;;;3.78;100.00
24762;BME280;12865;51.934;10.330;2023-02-05T11:00:06;100881.25;;;3.97;100.00
24762;BME280;12865;51.934;10.330;2023-02-05T11:02:58;100878.72;;;3.71;100.00
24762;BME280;12865;51.934;10.330;2023-02-05T11:05:44;100875.28;;;3.69;100.00
24762;BME280;12865;51.934;10.330;2023-02-05T11:08:36;100886.72;;;3.68;100.00
24762;BME280;12865;51.934;10.330;2023-02-05T11:11:26;100882.09;;;3.74;100.00
24762;BME280;12865;51.934;10.330;2023-02-05T11:14:24;100901.41;;;3.75;100.00
24762;BME280;12865;51.934;10.330;2023-02-05T11:20:10;100906.13;;;3.42;100.00
24762;BME280;12865;51.934;10.330;2023-02-05T11:23:23;100906.22;;;3.39;100.00
24762;BME280;12865;51.934;10.330;2023-02-05T11:26:21;100900.13;;;3.37;100.00
24762;BME280;12865;51.934;10.330;2023-02-05T11:29:25;100903.50;;;3.15;100.00
24762;BME280;12865;51.934;10.330;2023-02-05T11:32:20;100907.41;;;3.04;100.00
24762;BME280;12865;51.934;10.330;2023-02-05T11:38:09;100907.84;;;2.92;100.00
24762;BME280;12865;51.934;10.330;2023-02-05T11:41:03;100906.81;;;2.96;100.00
24762;BME280;12865;51.934;10.330;2023-02-05T11:43:51;100902.41;;;2.96;100.00
24762;BME280;12865;51.934;10.330;2023-02-05T11:46:42;100898.97;;;2.94;100.00
24762;BME280;12865;51.934;10.330;2023-02-05T11:49:36;100892.06;;;2.90;100.00
24762;BME280;12865;51.934;10.330;2023-02-05T11:52:29;100894.69;;;2.90;100.00
24762;BME280;12865;51.934;10.330;2023-02-05T11:55:29;100897.94;;;2.98;100.00
24762;BME280;12865;51.934;10.330;2023-02-05T12:01:19;100904.78;;;3.04;100.00
24762;BME280;12865;51.934;10.330;2023-02-05T12:07:03;100904.94;;;2.99;100.00
24762;BME280;12865;51.934;10.330;2023-02-05T12:09:52;100911.28;;;3.20;100.00
24762;BME280;12865;51.934;10.330;2023-02-05T12:12:52;100916.88;;;3.36;100.00
24762;BME280;12865;51.934;10.330;2023-02-05T12:15:58;100924.72;;;3.37;100.00
24762;BME280;12865;51.934;10.330;2023-02-05T12:19:02;100925.34;;;3.19;100.00
24762;BME280;12865;51.934;10.330;2023-02-05T12:22:02;100931.41;;;3.47;100.00
24762;BME280;12865;51.934;10.330;2023-02-05T12:29:05;100936.53;;;3.01;100.00
24762;BME280;12865;51.934;10.330;2023-02-05T12:35:11;100957.06;;;2.90;100.00
24762;BME280;12865;51.934;10.330;2023-02-05T12:43:45;100960.38;;;2.68;100.00
24762;BME280;12865;51.934;10.330;2023-02-05T12:46:46;100962.66;;;2.51;100.00
24762;BME280;12865;51.934;10.330;2023-02-05T12:50:02;100959.94;;;2.25;100.00
24762;BME280;12865;51.934;10.330;2023-02-05T12:56:21;100959.84;;;2.28;100.00
24762;BME280;12865;51.934;10.330;2023-02-05T12:59:15;100967.06;;;2.21;100.00
24762;BME280;12865;51.934;10.330;2023-02-05T13:02:04;100948.88;;;2.14;100.00
24762;BME280;12865;51.934;10.330;2023-02-05T13:08:09;100962.22;;;2.06;100.00
24762;BME280;12865;51.934;10.330;2023-02-05T13:11:02;100958.44;;;2.16;100.00
24762;BME280;12865;51.934;10.330;2023-02-05T13:13:59;100963.97;;;2.07;100.00
24762;BME280;12865;51.934;10.330;2023-02-05T13:16:48;100957.16;;;2.00;100.00
24762;BME280;12865;51.934;10.330;2023-02-05T13:19:39;100955.41;;;1.99;100.00
24762;BME280;12865;51.934;10.330;2023-02-05T13:22:34;100949.63;;;1.88;100.00
24762;BME280;12865;51.934;10.330;2023-02-05T13:25:45;100953.97;;;1.89;100.00
24762;BME280;12865;51.934;10.330;2023-02-05T13:29:08;100948.47;;;1.96;100.00
24762;BME280;12865;51.934;10.330;2023-02-05T13:32:00;100945.91;;;1.95;100.00
24762;BME280;12865;51.934;10.330;2023-02-05T13:34:47;100944.00;;;2.00;100.00
24762;BME280;12865;51.934;10.330;2023-02-05T13:38:01;100929.91;;;2.03;100.00
24762;BME280;12865;51.934;10.330;2023-02-05T13:41:25;100937.34;;;2.18;100.00
24762;BME280;12865;51.934;10.330;2023-02-05T13:53:25;100909.91;;;2.54;100.00
24762;BME280;12865;51.934;10.330;2023-02-05T13:59:42;100930.91;;;2.84;100.00
24762;BME280;12865;51.934;10.330;2023-02-05T14:02:45;100938.56;;;2.91;100.00
24762;BME280;12865;51.934;10.330;2023-02-05T14:05:35;100952.03;;;2.82;100.00
24762;BME280;12865;51.934;10.330;2023-02-05T14:08:25;100949.59;;;2.76;100.00
24762;BME280;12865;51.934;10.330;2023-02-05T14:11:13;100951.13;;;2.83;100.00
24762;BME280;12865;51.934;10.330;2023-02-05T14:14:19;100953.56;;;2.89;100.00
24762;BME280;12865;51.934;10.330;2023-02-05T14:23:51;100944.50;;;2.98;100.00
24762;BME280;12865;51.934;10.330;2023-02-05T14:29:43;100973.91;;;3.38;100.00
24762;BME280;12865;51.934;10.330;2023-02-05T14:35:01;100981.38;;;2.98;100.00
24762;BME280;12865;51.934;10.330;2023-02-05T14:37:48;100984.84;;;3.26;100.00
24762;BME280;12865;51.934;10.330;2023-02-05T14:40:34;100995.88;;;2.85;100.00
24762;BME280;12865;51.934;10.330;2023-02-05T14:43:26;100996.09;;;2.77;100.00
24762;BME280;12865;51.934;10.330;2023-02-05T14:46:33;100997.94;;;2.73;100.00
24762;BME280;12865;51.934;10.330;2023-02-05T14:52:29;101014.59;;;2.74;100.00
24762;BME280;12865;51.934;10.330;2023-02-05T14:55:36;101027.69;;;2.77;100.00
24762;BME280;12865;51.934;10.330;2023-02-05T14:58:32;101034.50;;;2.84;100.00
24762;BME280;12865;51.934;10.330;2023-02-05T15:07:13;101039.41;;;2.67;100.00
24762;BME280;12865;51.934;10.330;2023-02-05T15:10:13;101052.41;;;2.73;100.00
24762;BME280;12865;51.934;10.330;2023-02-05T15:13:12;101051.75;;;2.35;100.00
24762;BME280;12865;51.934;10.330;2023-02-05T15:16:17;101058.97;;;2.27;100.00
24762;BME280;12865;51.934;10.330;2023-02-05T15:19:04;101055.88;;;2.13;100.00
24762;BME280;12865;51.934;10.330;2023-02-05T15:21:51;101063.56;;;2.21;100.00
24762;BME280;12865;51.934;10.330;2023-02-05T15:24:38;101066.53;;;2.09;100.00
24762;BME280;12865;51.934;10.330;2023-02-05T15:27:37;101058.63;;;2.09;100.00
24762;BME280;12865;51.934;10.330;2023-02-05T15:30:31;101067.38;;;2.09;100.00
24762;BME280;12865;51.934;10.330;2023-02-05T15:33:29;101065.28;;;2.22;100.00
24762;BME280;12865;51.934;10.330;2023-02-05T15:36:19;101055.97;;;2.10;100.00
24762;BME280;12865;51.934;10.330;2023-02-05T15:39:13;101049.88;;;2.08;100.00
24762;BME280;12865;51.934;10.330;2023-02-05T15:42:02;101049.56;;;2.19;100.00
24762;BME280;12865;51.934;10.330;2023-02-05T15:44:49;101057.44;;;2.20;100.00
24762;BME280;12865;51.934;10.330;2023-02-05T15:47:35;101071.38;;;2.24;100.00
24762;BME280;12865;51.934;10.330;2023-02-05T15:50:20;101078.53;;;2.17;100.00
24762;BME280;12865;51.934;10.330;2023-02-05T15:53:10;101090.69;;;2.23;100.00
24762;BME280;12865;51.934;10.330;2023-02-05T15:56:21;101096.38;;;2.08;100.00
24762;BME280;12865;51.934;10.330;2023-02-05T16:02:06;101105.19;;;2.05;100.00
24762;BME280;12865;51.934;10.330;2023-02-05T16:05:14;101115.81;;;2.02;100.00
24762;BME280;12865;51.934;10.330;2023-02-05T16:08:00;101113.75;;;2.13;100.00
24762;BME280;12865;51.934;10.330;2023-02-05T16:10:52;101120.66;;;2.17;100.00
24762;BME280;12865;51.934;10.330;2023-02-05T16:13:38;101120.16;;;2.03;100.00
24762;BME280;12865;51.934;10.330;2023-02-05T16:16:24;101112.19;;;2.06;100.00
24762;BME280;12865;51.934;10.330;2023-02-05T16:19:20;101110.59;;;1.99;100.00
24762;BME280;12865;51.934;10.330;2023-02-05T16:22:28;101111.34;;;2.04;100.00